Terminal Aerodrome Forecast
Issued by NWS

Home | Current Version | Previous Version | Text Only | Print | Product List | Glossary On
Versions: 1 2 3 4 5 6 7 8 9 10 11 12 13 14 15 16 17
000
FTUS45 KABQ 312326
TAFTCC
TAF
KTCC 312326Z 0100/0124 VRB06KT P6SM VCTS SCT050CB BKN120
      TEMPO 0100/0101 VRB20G30KT 4SM TSRA BKN040CB
     FM010200 14010KT P6SM VCSH BKN100
     FM010600 07007KT P6SM VCSH SCT040 BKN090
     FM011200 10007KT P6SM BKN100
     FM011700 24010KT P6SM BKN110
     FM012300 23010KT P6SM VCTS SCT060CB BKN100=

USA.gov is the U.S. government's official web portal to all federal, state and local government web resources and services.